Ledger, Montana
Current Conditions -  °F | °C
As of 6:56 PM on Saturday 22 Nov 2014 (Local Time) from KCTB Reporting Station
Clear Clear  
Wind Chill: 21°   Ceiling: Unl
Heat Index: 34°   Visibility: 10mi
Dew Point: 20°   Wind: 25mph
Humidity: 56%   Direction: 270°W
Pressure: 29.47"   Gusts: 35mph
Location:  48.26°N, 111.82°W
Report Text: KCTB 230156Z AUTO 27022G30KT 10SM CLR 01/M07 A2947 RMK AO2 PK WND 27031/0144 SLP996 T00111067
Loading
Personal Weather Stations






























Interactive Weather Map New forecast layout! Learn more

10-Day Weather Forecast

Advertisements
Track Severe Weather on mobile